Time;durP1;ratioP1;P1;durP2;ratioP2;P2;SDS_P1;SDS_P2;PMS_P1;PMS_P2;Temp;Humidity;BMP_temperature;BMP_pressure;BME280_temperature;BME280_humidity;BME280_pressure;Samples;Min_cycle;Max_cycle;Signal;HPM_P1;HPM_P2
2023/01/16 00:01:19;;;;;;;2.37;0.70;;;9.10;68.80;;;;;;2337275;53;20929;-74
2023/01/16 00:03:46;;;;;;;4.00;0.70;;;9.10;68.70;;;;;;2426950;53;20941;-73
2023/01/16 00:06:13;;;;;;;1.25;0.30;;;9.20;68.90;;;;;;2337585;53;21019;-74
2023/01/16 00:08:41;;;;;;;3.00;0.62;;;9.20;68.90;;;;;;2337409;53;20928;-74
2023/01/16 00:11:07;;;;;;;2.15;0.70;;;9.20;68.90;;;;;;2582957;52;20913;-74
2023/01/16 00:14:02;;;;;;;2.33;0.50;;;9.20;68.90;;;;;;2337232;53;20949;-73
2023/01/16 00:16:28;;;;;;;2.62;0.50;;;9.20;68.00;;;;;;2336464;53;20965;-74
2023/01/16 00:18:55;;;;;;;1.95;0.60;;;9.20;68.90;;;;;;2480855;52;21005;-74
2023/01/16 00:21:25;;;;;;;4.43;0.80;;;9.20;68.80;;;;;;2336618;53;20993;-74
2023/01/16 00:23:55;;;;;;;3.42;0.50;;;9.20;68.70;;;;;;2571814;52;20949;-74
2023/01/16 00:26:26;;;;;;;1.48;0.68;;;9.20;68.50;;;;;;2337223;53;20968;-74
2023/01/16 00:28:55;;;;;;;1.45;0.50;;;9.20;68.60;;;;;;2583085;52;20996;-73
2023/01/16 00:31:27;;;;;;;2.90;0.60;;;9.20;68.80;;;;;;2384152;52;21037;-74
2023/01/16 00:33:53;;;;;;;2.85;0.50;;;9.20;68.80;;;;;;2579369;52;22309;-74
2023/01/16 00:36:20;;;;;;;1.17;0.40;;;9.20;68.70;;;;;;2335237;53;21439;-74
2023/01/16 00:38:47;;;;;;;4.30;0.90;;;9.20;68.70;;;;;;2345266;53;21000;-73
2023/01/16 00:41:13;;;;;;;0.90;0.40;;;9.20;68.60;;;;;;2337738;53;21092;-73
2023/01/16 00:43:39;;;;;;;1.52;0.50;;;9.20;68.70;;;;;;2414609;52;20940;-73
2023/01/16 00:46:07;;;;;;;2.78;0.68;;;9.20;68.70;;;;;;2394924;53;21032;-73
2023/01/16 00:48:37;;;;;;;3.55;0.60;;;9.20;68.80;;;;;;2582511;52;20929;-72
2023/01/16 00:51:03;;;;;;;3.17;0.62;;;9.20;68.70;;;;;;2338059;53;20925;-74
2023/01/16 00:53:33;;;;;;;3.10;0.70;;;9.20;68.90;;;;;;2416578;52;21758;-74
2023/01/16 00:55:59;;;;;;;2.60;0.70;;;9.20;68.80;;;;;;2336230;53;21359;-74
2023/01/16 00:58:26;;;;;;;1.58;0.50;;;9.20;68.80;;;;;;2482564;52;21363;-74
2023/01/16 01:00:52;;;;;;;1.40;0.40;;;9.20;68.90;;;;;;2337363;53;21063;-74
2023/01/16 01:03:19;;;;;;;1.12;0.35;;;9.20;68.80;;;;;;2578591;52;20997;-73
2023/01/16 01:05:46;;;;;;;4.53;0.85;;;9.20;68.80;;;;;;2556030;52;20936;-73
2023/01/16 01:08:12;;;;;;;2.80;0.50;;;9.20;68.70;;;;;;2582670;52;21434;-74
2023/01/16 01:10:38;;;;;;;2.92;0.68;;;9.20;68.70;;;;;;2343705;52;20985;-73
2023/01/16 01:13:06;;;;;;;1.70;0.40;;;9.20;68.70;;;;;;2582439;52;20932;-74
2023/01/16 01:15:32;;;;;;;5.75;0.85;;;9.20;68.70;;;;;;2336998;53;21448;-73
2023/01/16 01:17:59;;;;;;;2.62;0.70;;;9.20;68.60;;;;;;2513784;52;21751;-74
2023/01/16 01:20:25;;;;;;;2.47;0.68;;;9.20;68.70;;;;;;2336766;53;20953;-73
2023/01/16 01:22:51;;;;;;;2.05;0.80;;;9.20;69.30;;;;;;2334960;53;20913;-73
2023/01/16 01:25:19;;;;;;;1.92;0.70;;;9.20;68.60;;;;;;2335241;53;20981;-73
2023/01/16 01:27:45;;;;;;;2.30;0.60;;;9.20;68.50;;;;;;2582668;52;20901;-74
2023/01/16 01:30:13;;;;;;;1.77;0.50;;;9.20;68.50;;;;;;2337365;53;22389;-73
2023/01/16 01:32:39;;;;;;;2.87;0.45;;;9.20;68.50;;;;;;2337597;53;20976;-74
2023/01/16 01:35:06;;;;;;;4.50;0.57;;;9.20;68.50;;;;;;2337466;53;20929;-73
2023/01/16 01:37:34;;;;;;;2.97;0.55;;;9.20;68.50;;;;;;2580760;52;20927;-73
2023/01/16 01:40:01;;;;;;;3.70;0.50;;;9.20;68.60;;;;;;2337273;53;20945;-74
2023/01/16 01:42:43;;;;;;;2.28;0.50;;;9.20;68.50;;;;;;2581921;52;20921;-74
2023/01/16 01:45:18;;;;;;;1.87;0.47;;;9.20;68.50;;;;;;2536096;52;22129;-73
2023/01/16 01:49:36;;;;;;;4.57;0.50;;;9.30;68.20;;;;;;2337101;53;20987;-73
2023/01/16 01:52:02;;;;;;;3.17;0.98;;;9.30;66.90;;;;;;2562496;52;20996;-74
2023/01/16 01:54:37;;;;;;;2.08;0.60;;;9.30;68.60;;;;;;2336478;53;20976;-74
2023/01/16 01:57:17;;;;;;;3.08;0.60;;;9.20;68.00;;;;;;2337618;53;21046;-73
2023/01/16 01:59:54;;;;;;;1.83;0.55;;;9.20;68.20;;;;;;2336544;53;20895;-73
2023/01/16 02:02:22;;;;;;;3.22;0.55;;;9.20;68.20;;;;;;2339784;53;20949;-73
2023/01/16 02:04:56;;;;;;;2.58;0.70;;;9.20;68.40;;;;;;2582530;52;21004;-74
2023/01/16 02:07:23;;;;;;;2.12;0.65;;;9.20;68.40;;;;;;2336588;53;20987;-73
2023/01/16 02:09:51;;;;;;;1.70;0.50;;;9.20;68.30;;;;;;2582544;52;20924;-72
2023/01/16 02:12:18;;;;;;;1.40;0.40;;;9.20;68.40;;;;;;2336932;53;20953;-74
2023/01/16 02:14:45;;;;;;;1.73;0.50;;;9.20;68.40;;;;;;2581901;52;20897;-74
2023/01/16 02:20:26;;;;;;;3.12;0.60;;;9.20;68.00;;;;;;2405086;52;21371;-73
2023/01/16 02:23:52;;;;;;;2.90;0.45;;;9.20;67.50;;;;;;2431781;53;20980;-74
2023/01/16 02:26:45;;;;;;;1.35;0.47;;;9.20;66.80;;;;;;2337266;53;21000;-74
2023/01/16 02:37:21;;;;;;;1.17;0.40;;;9.20;67.80;;;;;;2336799;53;20952;-74
2023/01/16 02:41:58;;;;;;;3.70;0.60;;;9.20;66.80;;;;;;2337377;53;20897;-74
2023/01/16 02:44:39;;;;;;;2.12;0.68;;;9.10;66.70;;;;;;2582615;52;21060;-73
2023/01/16 02:47:24;;;;;;;1.27;0.45;;;9.10;68.20;;;;;;2583113;52;20997;-73
2023/01/16 02:50:02;;;;;;;3.97;0.52;;;9.10;68.10;;;;;;2337174;53;21005;-74
2023/01/16 02:52:40;;;;;;;2.97;0.50;;;9.10;68.30;;;;;;2491709;52;20941;-73
2023/01/16 02:55:16;;;;;;;2.33;0.75;;;9.10;68.20;;;;;;2338255;53;20932;-73
2023/01/16 02:57:45;;;;;;;2.67;0.50;;;9.00;68.10;;;;;;2336801;53;20990;-74
2023/01/16 03:00:13;;;;;;;5.10;0.82;;;9.00;68.50;;;;;;2337442;53;20925;-73
2023/01/16 03:02:42;;;;;;;1.77;0.43;;;9.00;68.60;;;;;;2335602;54;20989;-73
2023/01/16 03:05:09;;;;;;;1.65;0.45;;;9.00;68.40;;;;;;2337380;53;21017;-73
2023/01/16 03:10:53;;;;;;;1.30;0.40;;;9.00;68.70;;;;;;2548477;52;21481;-73
2023/01/16 03:13:46;;;;;;;2.12;0.40;;;9.00;66.90;;;;;;2337799;53;20905;-73
2023/01/16 03:16:31;;;;;;;1.40;0.50;;;9.00;67.90;;;;;;2337428;53;20949;-73
2023/01/16 03:19:12;;;;;;;1.92;0.40;;;9.00;68.30;;;;;;2337077;53;20941;-74
2023/01/16 03:22:05;;;;;;;2.42;0.45;;;9.00;68.50;;;;;;2336229;53;20981;-73
2023/01/16 03:24:42;;;;;;;1.67;0.40;;;9.00;68.10;;;;;;2336930;53;20960;-74
2023/01/16 03:27:52;;;;;;;2.40;0.70;;;9.00;68.70;;;;;;2582514;52;21414;-72
2023/01/16 03:37:11;;;;;;;1.40;0.37;;;9.00;68.00;;;;;;2373800;52;20932;-73
2023/01/16 03:39:46;;;;;;;1.17;0.40;;;9.10;67.60;;;;;;2337292;53;20932;-73
2023/01/16 03:42:15;;;;;;;3.22;0.50;;;9.10;69.00;;;;;;2337738;53;21814;-73
2023/01/16 03:44:45;;;;;;;0.88;0.35;;;9.10;69.10;;;;;;2582403;52;21057;-74
2023/01/16 03:47:18;;;;;;;2.95;0.40;;;9.10;69.10;;;;;;2337371;53;20949;-73
2023/01/16 03:49:47;;;;;;;1.90;0.40;;;9.10;69.20;;;;;;2337096;53;20921;-73
2023/01/16 03:52:17;;;;;;;3.60;0.50;;;9.10;69.10;;;;;;2582752;52;20941;-73
2023/01/16 03:56:20;;;;;;;1.65;0.30;;;9.10;69.10;;;;;;2337047;53;21016;-73
2023/01/16 03:58:50;;;;;;;2.78;0.50;;;9.10;67.20;;;;;;2337701;53;20988;-74
2023/01/16 04:05:07;;;;;;;2.28;0.40;;;9.10;69.10;;;;;;2475228;52;20921;-73
2023/01/16 04:08:14;;;;;;;0.98;0.30;;;9.10;67.30;;;;;;2339455;53;20968;-73
2023/01/16 04:10:41;;;;;;;0.98;0.43;;;9.20;67.80;;;;;;2333773;53;20981;-73
2023/01/16 04:13:12;;;;;;;1.92;0.47;;;9.20;69.20;;;;;;2337561;53;20940;-73
2023/01/16 04:15:41;;;;;;;1.62;0.50;;;9.10;68.90;;;;;;2390299;52;20905;-73
2023/01/16 04:18:08;;;;;;;2.08;0.47;;;9.20;69.10;;;;;;2337289;53;20937;-73
2023/01/16 04:20:39;;;;;;;1.60;0.40;;;9.20;69.10;;;;;;2339349;53;20916;-73
2023/01/16 04:23:06;;;;;;;2.22;0.90;;;9.20;68.90;;;;;;2333039;53;21485;-73
2023/01/16 04:25:35;;;;;;;1.40;0.30;;;9.20;69.10;;;;;;2336411;53;21481;-73
2023/01/16 04:28:01;;;;;;;2.35;0.40;;;9.20;69.10;;;;;;2337227;53;20973;-73
2023/01/16 04:30:27;;;;;;;3.15;0.57;;;9.20;69.00;;;;;;2434792;52;21068;-73
2023/01/16 04:32:54;;;;;;;2.83;0.50;;;9.20;69.10;;;;;;2337192;53;20905;-72
2023/01/16 04:35:21;;;;;;;1.75;0.40;;;9.20;69.10;;;;;;2337094;53;21005;-73
2023/01/16 04:37:47;;;;;;;2.03;0.40;;;9.20;69.00;;;;;;2345727;53;20953;-73
2023/01/16 04:40:15;;;;;;;2.75;0.70;;;9.30;69.10;;;;;;2582462;52;20932;-73
2023/01/16 04:42:42;;;;;;;2.35;0.40;;;9.30;69.10;;;;;;2329855;53;20940;-73
2023/01/16 04:45:09;;;;;;;1.73;0.40;;;9.30;69.00;;;;;;2402853;52;21372;-73
2023/01/16 04:47:35;;;;;;;0.68;0.28;;;9.30;69.10;;;;;;2322262;53;21004;-72
2023/01/16 04:50:01;;;;;;;2.65;0.40;;;9.30;69.00;;;;;;2323049;53;20944;-73
2023/01/16 04:52:29;;;;;;;0.52;0.20;;;9.30;69.00;;;;;;2469314;52;20960;-74
2023/01/16 04:54:56;;;;;;;1.55;0.40;;;9.30;68.90;;;;;;2341180;53;20924;-73
2023/01/16 04:57:23;;;;;;;2.65;0.40;;;9.30;68.80;;;;;;2322604;53;21112;-73
2023/01/16 04:59:50;;;;;;;2.12;0.32;;;9.40;68.80;;;;;;2535190;52;21543;-73
2023/01/16 05:02:17;;;;;;;1.98;0.40;;;9.40;68.80;;;;;;2322430;53;21028;-73
2023/01/16 05:04:43;;;;;;;2.83;0.35;;;9.40;68.70;;;;;;2546481;52;20932;-73
2023/01/16 05:07:09;;;;;;;0.75;0.30;;;9.40;68.70;;;;;;2322140;53;20944;-73
2023/01/16 05:09:35;;;;;;;3.30;0.95;;;9.40;68.70;;;;;;2565657;52;22091;-73
2023/01/16 05:12:02;;;;;;;1.48;0.40;;;9.40;68.70;;;;;;2330000;53;20997;-74
2023/01/16 05:14:29;;;;;;;1.17;0.40;;;9.40;68.70;;;;;;2322511;53;20948;-73
2023/01/16 05:16:55;;;;;;;1.80;0.45;;;9.40;68.70;;;;;;2425497;52;20944;-73
2023/01/16 05:19:21;;;;;;;2.37;0.50;;;9.40;68.70;;;;;;2391426;52;20945;-73
2023/01/16 05:21:47;;;;;;;1.33;0.32;;;9.40;68.70;;;;;;2320846;53;20912;-73
2023/01/16 05:24:14;;;;;;;2.05;0.50;;;9.40;68.70;;;;;;2467033;52;21496;-73
2023/01/16 05:26:40;;;;;;;1.12;0.40;;;9.50;68.80;;;;;;2321454;53;20940;-73
2023/01/16 05:29:06;;;;;;;1.62;0.35;;;9.40;68.70;;;;;;2322256;53;20925;-73
2023/01/16 05:31:33;;;;;;;1.35;0.40;;;9.40;68.60;;;;;;2321589;53;21883;-73
2023/01/16 05:33:59;;;;;;;1.15;0.32;;;9.50;68.70;;;;;;2322364;53;20953;-73
2023/01/16 05:36:26;;;;;;;1.65;0.30;;;9.50;68.70;;;;;;2321854;53;21576;-73
2023/01/16 05:38:54;;;;;;;2.40;0.40;;;9.50;68.70;;;;;;2321439;53;20988;-73
2023/01/16 05:41:21;;;;;;;0.95;0.30;;;9.50;68.70;;;;;;2321459;53;21409;-73
2023/01/16 05:43:47;;;;;;;0.95;0.30;;;9.50;68.60;;;;;;2321572;53;21020;-74
2023/01/16 05:46:14;;;;;;;2.65;0.60;;;9.50;68.60;;;;;;2321712;53;21453;-72
2023/01/16 05:48:40;;;;;;;2.17;0.60;;;9.50;68.50;;;;;;2321218;53;21677;-73
2023/01/16 05:51:07;;;;;;;5.25;2.03;;;9.50;68.50;;;;;;2340314;53;21312;-73
2023/01/16 05:53:33;;;;;;;2.97;1.25;;;9.50;68.50;;;;;;2321649;53;21480;-73
2023/01/16 05:56:06;;;;;;;2.67;0.70;;;9.50;68.40;;;;;;2522161;52;21511;-73
2023/01/16 05:58:32;;;;;;;1.90;0.55;;;9.60;68.10;;;;;;2366386;53;20945;-73
2023/01/16 06:00:59;;;;;;;1.85;0.60;;;9.60;68.50;;;;;;2321949;53;21240;-73
2023/01/16 06:03:25;;;;;;;1.75;0.43;;;9.60;68.50;;;;;;2507232;52;21804;-73
2023/01/16 06:05:51;;;;;;;2.83;0.52;;;9.60;68.30;;;;;;2322200;53;21529;-73
2023/01/16 06:08:17;;;;;;;0.82;0.30;;;9.60;68.30;;;;;;2565264;52;20945;-74
2023/01/16 06:10:47;;;;;;;1.27;0.30;;;9.60;68.30;;;;;;2423273;52;21044;-73
2023/01/16 06:13:14;;;;;;;1.40;0.40;;;9.60;68.30;;;;;;2391391;52;21067;-73
2023/01/16 06:15:42;;;;;;;3.30;0.80;;;9.60;68.20;;;;;;2321712;53;21441;-73
2023/01/16 06:18:08;;;;;;;0.80;0.30;;;9.60;68.10;;;;;;2410134;52;20928;-73
2023/01/16 06:20:36;;;;;;;1.45;0.40;;;9.60;68.10;;;;;;2347460;53;20931;-74
2023/01/16 06:23:02;;;;;;;0.82;0.40;;;9.60;68.10;;;;;;2327592;53;20953;-73
2023/01/16 06:25:28;;;;;;;1.80;0.37;;;9.60;68.10;;;;;;2479305;52;21472;-73
2023/01/16 06:27:55;;;;;;;0.95;0.30;;;9.60;68.00;;;;;;2322456;53;22138;-73
2023/01/16 06:30:22;;;;;;;1.27;0.52;;;9.60;68.00;;;;;;2348500;52;21056;-73
2023/01/16 06:32:51;;;;;;;3.55;0.70;;;9.60;67.90;;;;;;2318934;53;21509;-74
2023/01/16 06:35:17;;;;;;;2.22;0.52;;;9.60;67.90;;;;;;2566228;52;21048;-73
2023/01/16 06:37:44;;;;;;;1.45;0.40;;;9.60;67.90;;;;;;2385506;52;21063;-73
2023/01/16 06:40:11;;;;;;;1.62;0.50;;;9.60;68.00;;;;;;2322488;53;20996;-73
2023/01/16 06:42:38;;;;;;;1.15;0.40;;;9.70;68.00;;;;;;2369378;52;21715;-74
2023/01/16 06:45:05;;;;;;;1.40;0.43;;;9.60;68.00;;;;;;2344544;53;21552;-73
2023/01/16 06:47:32;;;;;;;1.42;0.40;;;9.70;68.00;;;;;;2565803;52;20925;-74
2023/01/16 06:49:59;;;;;;;1.37;0.50;;;9.70;68.00;;;;;;2322243;53;20984;-74
2023/01/16 06:52:25;;;;;;;1.05;0.32;;;9.70;68.00;;;;;;2321828;53;21423;-73
2023/01/16 06:54:51;;;;;;;1.77;0.32;;;9.70;68.00;;;;;;2367527;53;21449;-74
2023/01/16 06:57:17;;;;;;;1.67;0.45;;;9.70;67.90;;;;;;2322495;53;21522;-74
2023/01/16 06:59:44;;;;;;;1.23;0.30;;;9.70;68.00;;;;;;2510248;52;21454;-73
2023/01/16 07:02:10;;;;;;;1.75;0.30;;;9.70;67.90;;;;;;2321959;53;20933;-73
2023/01/16 07:04:36;;;;;;;1.30;0.40;;;9.80;68.10;;;;;;2565864;52;20933;-73
2023/01/16 07:07:03;;;;;;;1.27;0.40;;;9.80;68.20;;;;;;2299521;54;20965;-73
2023/01/16 07:09:30;;;;;;;0.60;0.20;;;9.80;68.10;;;;;;2391994;52;20917;-73
2023/01/16 07:11:56;;;;;;;0.80;0.32;;;9.80;68.00;;;;;;2321972;53;20941;-72
2023/01/16 07:22:39;;;;;;;0.57;0.30;;;9.90;68.10;;;;;;2322369;53;21749;-72
2023/01/16 07:25:11;;;;;;;0.68;0.30;;;10.00;67.10;;;;;;2325158;53;21414;-73
2023/01/16 07:27:38;;;;;;;0.77;0.20;;;10.00;67.00;;;;;;2299874;54;20949;-72
2023/01/16 07:30:05;;;;;;;0.62;0.30;;;10.00;67.10;;;;;;2422000;52;20928;-73
2023/01/16 07:32:32;;;;;;;1.42;0.40;;;10.10;67.20;;;;;;2496231;52;20922;-73
2023/01/16 07:35:00;;;;;;;0.70;0.28;;;10.10;67.20;;;;;;2433949;52;20957;-73
2023/01/16 07:37:27;;;;;;;0.62;0.30;;;10.10;67.20;;;;;;2403951;52;20968;-73
2023/01/16 07:39:54;;;;;;;0.98;0.40;;;10.20;67.20;;;;;;2322608;53;21475;-73
2023/01/16 07:42:21;;;;;;;0.55;0.30;;;10.20;67.20;;;;;;2419001;52;21574;-73
2023/01/16 07:44:47;;;;;;;0.50;0.30;;;10.30;67.30;;;;;;2503496;52;20943;-73
2023/01/16 07:47:14;;;;;;;0.93;0.30;;;10.30;67.20;;;;;;2566411;52;21517;-72
2023/01/16 07:49:42;;;;;;;1.12;0.40;;;10.30;67.10;;;;;;2516018;52;20986;-73
2023/01/16 07:52:08;;;;;;;1.70;0.30;;;10.40;67.00;;;;;;2323538;53;21497;-73
2023/01/16 07:54:36;;;;;;;1.67;0.65;;;10.40;67.00;;;;;;2320909;53;20929;-72
2023/01/16 07:57:02;;;;;;;1.70;0.70;;;10.40;66.80;;;;;;2322991;53;21425;-73
2023/01/16 07:59:29;;;;;;;1.08;0.45;;;10.40;66.80;;;;;;2566549;52;21120;-73
2023/01/16 08:01:56;;;;;;;0.70;0.40;;;10.50;67.00;;;;;;2322653;53;20992;-73
2023/01/16 08:04:22;;;;;;;0.20;0.20;;;10.50;66.90;;;;;;2522259;52;20960;-73
2023/01/16 08:06:48;;;;;;;0.73;0.20;;;10.50;66.80;;;;;;2321591;53;20949;-73
2023/01/16 08:09:15;;;;;;;1.10;0.40;;;10.60;66.80;;;;;;2456969;52;21385;-73
2023/01/16 08:11:46;;;;;;;1.62;0.82;;;10.60;66.70;;;;;;2552494;52;20928;-73
2023/01/16 08:14:12;;;;;;;2.42;0.50;;;10.60;66.60;;;;;;2322696;53;20964;-73
2023/01/16 08:16:39;;;;;;;1.10;0.68;;;10.60;66.60;;;;;;2321888;53;21284;-73
2023/01/16 08:19:05;;;;;;;0.82;0.43;;;10.60;66.50;;;;;;2322171;53;20953;-73
2023/01/16 08:21:31;;;;;;;1.00;0.40;;;10.70;66.60;;;;;;2322109;53;20997;-73
2023/01/16 08:23:57;;;;;;;2.20;0.30;;;10.70;66.50;;;;;;2428485;52;20960;-73
2023/01/16 08:26:24;;;;;;;1.55;0.43;;;10.70;66.50;;;;;;2321585;53;21573;-73
2023/01/16 08:28:52;;;;;;;1.27;0.47;;;10.70;66.40;;;;;;2394319;53;20988;-73
2023/01/16 08:31:18;;;;;;;1.33;0.47;;;10.70;66.10;;;;;;2321547;53;20973;-73
2023/01/16 08:33:46;;;;;;;1.20;0.50;;;10.80;66.20;;;;;;2321174;53;20961;-73
2023/01/16 08:36:13;;;;;;;0.85;0.40;;;10.80;67.00;;;;;;2321765;53;21143;-73
2023/01/16 08:38:40;;;;;;;1.10;0.40;;;10.80;66.20;;;;;;2356866;52;22133;-73
2023/01/16 08:51:21;;;;;;;1.80;0.57;;;10.80;66.10;;;;;;2564964;52;20921;-73
2023/01/16 08:53:51;;;;;;;1.00;0.35;;;10.80;66.10;;;;;;2567678;52;21944;-73
2023/01/16 08:56:19;;;;;;;1.00;0.40;;;10.90;66.30;;;;;;2324350;53;21005;-73
2023/01/16 08:58:46;;;;;;;1.90;0.50;;;10.90;66.00;;;;;;2323839;53;20991;-73
2023/01/16 09:01:13;;;;;;;1.62;0.60;;;10.90;66.90;;;;;;2323903;53;20990;-73
2023/01/16 09:03:39;;;;;;;3.60;0.80;;;10.90;66.30;;;;;;2463719;52;21234;-72
2023/01/16 09:06:05;;;;;;;3.45;0.90;;;10.90;66.60;;;;;;2325571;53;20901;-73
2023/01/16 09:08:32;;;;;;;2.12;0.90;;;10.90;66.10;;;;;;2325244;53;21441;-73
2023/01/16 09:13:49;;;;;;;3.60;1.60;;;10.90;65.90;;;;;;2564526;52;21461;-73
2023/01/16 09:16:22;;;;;;;5.47;2.80;;;10.90;65.90;;;;;;2325679;53;20968;-73
2023/01/16 09:18:49;;;;;;;8.05;3.28;;;10.90;65.40;;;;;;2544719;52;21025;-74
2023/01/16 09:21:15;;;;;;;4.47;1.95;;;10.90;65.90;;;;;;2325763;53;20957;-73
2023/01/16 09:23:42;;;;;;;2.65;1.00;;;10.90;65.90;;;;;;2324295;53;21320;-73
2023/01/16 09:26:09;;;;;;;6.37;2.08;;;10.90;65.80;;;;;;2362728;53;22017;-72
2023/01/16 09:28:35;;;;;;;2.65;1.12;;;10.90;65.30;;;;;;2321700;53;20961;-72
2023/01/16 09:31:02;;;;;;;3.35;1.48;;;10.90;65.40;;;;;;2452932;52;21323;-73
2023/01/16 09:33:28;;;;;;;6.40;2.97;;;10.90;65.50;;;;;;2322108;53;20940;-72
2023/01/16 09:35:54;;;;;;;15.95;7.37;;;10.90;65.60;;;;;;2321122;53;20972;-73
2023/01/16 09:38:21;;;;;;;11.15;6.03;;;10.90;65.50;;;;;;2321706;53;21591;-73
2023/01/16 09:40:50;;;;;;;13.13;5.87;;;10.90;65.60;;;;;;2403701;53;21040;-72
2023/01/16 09:43:39;;;;;;;5.65;2.75;;;10.90;65.80;;;;;;2322065;53;20935;-72
2023/01/16 09:46:19;;;;;;;4.85;2.67;;;10.90;64.40;;;;;;2322145;53;21458;-73
2023/01/16 09:48:52;;;;;;;2.35;1.02;;;10.90;64.90;;;;;;2321850;53;21548;-74
2023/01/16 09:51:26;;;;;;;4.68;2.47;;;10.90;65.00;;;;;;2526956;52;21487;-72
2023/01/16 10:00:11;;;;;;;3.30;1.60;;;10.90;66.00;;;;;;2322113;53;21017;-72
2023/01/16 10:02:37;;;;;;;2.45;1.10;;;10.90;66.00;;;;;;2379574;53;21445;-72
2023/01/16 10:05:04;;;;;;;2.17;0.93;;;10.90;66.00;;;;;;2322074;53;20937;-73
2023/01/16 10:07:59;;;;;;;2.65;1.12;;;10.90;66.00;;;;;;2509317;52;21088;-73
2023/01/16 10:10:50;;;;;;;2.12;0.85;;;10.90;65.00;;;;;;2383061;52;20953;-73
2023/01/16 10:13:59;;;;;;;1.90;0.70;;;10.90;65.50;;;;;;2321820;53;21800;-73
2023/01/16 10:16:39;;;;;;;1.90;0.82;;;10.90;65.10;;;;;;2322028;53;20948;-73
2023/01/16 10:19:20;;;;;;;3.53;2.00;;;10.90;65.90;;;;;;2321802;53;21600;-72
2023/01/16 10:23:22;;;;;;;3.12;1.50;;;10.90;65.80;;;;;;2321451;53;21497;-72
2023/01/16 10:29:17;;;;;;;1.52;0.68;;;10.90;64.50;;;;;;2321672;53;21217;-72
2023/01/16 10:33:19;;;;;;;1.80;0.80;;;10.90;64.50;;;;;;2322081;53;21414;-72
2023/01/16 10:35:47;;;;;;;1.77;0.60;;;10.80;66.20;;;;;;2321920;53;21684;-73
2023/01/16 10:38:36;;;;;;;1.27;0.50;;;10.80;66.40;;;;;;2321968;53;20949;-73
2023/01/16 10:49:25;;;;;;;3.03;0.90;;;10.80;65.80;;;;;;2329273;53;21406;-73
2023/01/16 10:51:13;;;;;;;1.85;0.57;;;10.80;66.80;;;;;;2542016;52;20905;-72
2023/01/16 10:53:39;;;;;;;1.30;0.57;;;10.90;67.00;;;;;;2392307;53;20953;-73
2023/01/16 10:56:06;;;;;;;1.52;0.50;;;10.80;66.80;;;;;;2325384;53;21397;-73
2023/01/16 10:58:37;;;;;;;3.20;1.62;;;10.80;66.80;;;;;;2325478;53;20948;-73
2023/01/16 11:01:13;;;;;;;2.47;1.23;;;10.80;66.70;;;;;;2368297;52;21045;-73
2023/01/16 11:03:44;;;;;;;1.90;0.90;;;10.80;66.50;;;;;;2325785;53;21438;-73
2023/01/16 11:06:26;;;;;;;1.83;0.73;;;10.80;67.00;;;;;;2325543;53;21512;-73
2023/01/16 11:08:54;;;;;;;2.50;1.50;;;10.80;66.50;;;;;;2479479;52;21284;-73
2023/01/16 11:20:31;;;;;;;1.12;0.50;;;10.80;66.40;;;;;;2325960;53;21064;-73
2023/01/16 11:23:12;;;;;;;1.62;0.77;;;10.80;67.00;;;;;;2321807;53;20921;-72
2023/01/16 11:25:39;;;;;;;1.27;0.60;;;10.90;67.30;;;;;;2565118;52;21416;-73
2023/01/16 11:28:07;;;;;;;0.90;0.40;;;10.90;67.70;;;;;;2321641;53;20953;-73
2023/01/16 11:30:40;;;;;;;1.92;0.80;;;10.90;67.70;;;;;;2565300;52;21734;-73
2023/01/16 11:33:19;;;;;;;2.20;0.98;;;10.90;67.70;;;;;;2350049;52;21707;-73
2023/01/16 11:35:56;;;;;;;3.87;1.90;;;11.00;67.70;;;;;;2396659;52;20928;-73
2023/01/16 11:38:24;;;;;;;3.53;1.70;;;11.00;67.60;;;;;;2321706;53;21868;-73
2023/01/16 11:40:51;;;;;;;3.90;1.83;;;11.10;68.20;;;;;;2400886;52;20937;-73
2023/01/16 11:46:38;;;;;;;5.40;2.83;;;11.10;68.00;;;;;;2453263;53;21639;-73
2023/01/16 11:49:23;;;;;;;7.07;3.53;;;11.20;67.30;;;;;;2564219;52;21048;-73
2023/01/16 11:51:52;;;;;;;7.22;2.83;;;11.20;67.40;;;;;;2484065;52;21064;-73
2023/01/16 11:54:20;;;;;;;4.70;1.70;;;11.30;67.80;;;;;;2322428;53;22015;-73
2023/01/16 11:57:35;;;;;;;2.33;0.98;;;11.30;68.50;;;;;;2322203;53;21036;-73
2023/01/16 12:03:28;;;;;;;1.42;0.57;;;11.30;66.20;;;;;;2322538;53;20956;-73
2023/01/16 12:06:12;;;;;;;0.52;0.30;;;11.40;66.10;;;;;;2321962;53;20933;-73
2023/01/16 12:09:09;;;;;;;0.75;0.40;;;11.50;67.20;;;;;;2321653;53;20956;-73
2023/01/16 12:25:39;;;;;;;2.65;1.17;;;11.50;65.50;;;;;;2322042;53;20961;-73
2023/01/16 12:29:42;;;;;;;2.20;1.10;;;11.60;66.50;;;;;;2581701;53;22304;-74
2023/01/16 12:32:37;;;;;;;1.73;0.70;;;11.70;67.70;;;;;;2322111;53;20961;-73
2023/01/16 12:35:58;;;;;;;2.67;0.65;;;11.70;66.40;;;;;;2322144;53;21047;-73
2023/01/16 12:38:37;;;;;;;1.45;0.40;;;11.80;67.00;;;;;;2409132;52;21008;-72
2023/01/16 12:44:08;;;;;;;1.58;0.60;;;11.80;66.50;;;;;;2334586;53;20937;-73
2023/01/16 12:47:32;;;;;;;0.98;0.40;;;11.80;65.50;;;;;;2384544;53;21022;-72
2023/01/16 12:50:17;;;;;;;2.12;0.68;;;11.90;65.20;;;;;;2322654;53;20947;-73
2023/01/16 12:52:58;;;;;;;2.72;0.90;;;11.90;66.60;;;;;;2322597;53;20996;-72
2023/01/16 12:55:37;;;;;;;3.65;1.60;;;11.90;66.20;;;;;;2322547;53;21087;-73
2023/01/16 12:58:19;;;;;;;3.83;1.30;;;11.80;66.30;;;;;;2323406;53;20941;-73
2023/01/16 13:01:09;;;;;;;4.60;1.40;;;11.80;66.10;;;;;;2565781;52;21638;-73
2023/01/16 13:03:59;;;;;;;2.12;0.93;;;11.80;65.90;;;;;;2318373;53;22588;-73
2023/01/16 13:06:45;;;;;;;2.10;0.90;;;11.80;66.20;;;;;;2484224;53;21289;-73
2023/01/16 13:09:49;;;;;;;1.37;0.50;;;11.80;65.50;;;;;;2326007;53;21075;-71
2023/01/16 13:15:30;;;;;;;0.98;0.40;;;11.70;64.40;;;;;;2571217;53;21087;-73
2023/01/16 13:18:12;;;;;;;1.33;0.50;;;11.70;65.50;;;;;;2388940;53;20948;-73
2023/01/16 13:20:38;;;;;;;0.87;0.40;;;11.70;65.50;;;;;;2326634;53;21311;-73
2023/01/16 13:23:22;;;;;;;3.20;0.98;;;11.60;65.30;;;;;;2325912;53;21512;-73
2023/01/16 13:25:56;;;;;;;1.33;0.60;;;11.60;64.50;;;;;;2326429;54;21512;-73
2023/01/16 13:28:48;;;;;;;1.30;0.50;;;11.60;65.40;;;;;;2427510;53;21471;-73
2023/01/16 13:31:38;;;;;;;1.02;0.50;;;11.60;64.80;;;;;;2326068;53;21496;-72
2023/01/16 13:34:53;;;;;;;1.12;0.40;;;11.60;65.40;;;;;;2371394;53;21492;-73
2023/01/16 13:38:53;;;;;;;1.05;0.43;;;11.50;64.30;;;;;;2415393;53;21637;-73
2023/01/16 13:41:34;;;;;;;2.33;1.20;;;11.50;65.80;;;;;;2326414;53;20989;-72
2023/01/16 13:47:11;;;;;;;1.37;0.50;;;11.50;66.00;;;;;;2326372;53;20940;-72
2023/01/16 13:49:37;;;;;;;1.35;0.47;;;11.50;65.50;;;;;;2326148;53;21618;-73
2023/01/16 13:52:03;;;;;;;0.75;0.30;;;11.50;66.00;;;;;;2327542;53;21493;-72
2023/01/16 13:54:37;;;;;;;1.17;0.37;;;11.60;66.20;;;;;;2532674;53;21127;-73
2023/01/16 13:57:08;;;;;;;1.20;0.37;;;11.50;65.80;;;;;;2571184;53;21519;-73
2023/01/16 13:59:52;;;;;;;1.17;0.45;;;11.50;66.00;;;;;;2444030;53;21453;-72
2023/01/16 14:02:25;;;;;;;;;;;11.50;65.60;;;;;;2329493;53;20929;-72
2023/01/16 14:11:56;;;;;;;1.23;0.50;;;11.60;64.70;;;;;;2326479;53;21591;-73
2023/01/16 14:17:16;;;;;;;;;;;11.60;66.10;;;;;;2329878;54;21370;-73
2023/01/16 14:27:52;;;;;;;0.65;0.30;;;11.50;64.60;;;;;;2326378;53;21439;-72
2023/01/16 14:30:25;;;;;;;0.75;0.30;;;11.40;65.90;;;;;;2512128;53;22133;-72
2023/01/16 14:32:54;;;;;;;2.65;0.40;;;11.40;65.70;;;;;;2415142;53;21454;-73
2023/01/16 14:35:30;;;;;;;1.05;0.40;;;11.30;65.90;;;;;;2365029;53;21516;-73
2023/01/16 14:38:06;;;;;;;2.95;0.35;;;11.30;66.10;;;;;;2326160;54;20933;-71
2023/01/16 14:56:26;;;;;;;0.93;0.40;;;11.10;65.50;;;;;;2354283;53;20984;-72
2023/01/16 15:04:18;;;;;;;1.73;0.37;;;11.00;64.20;;;;;;2326242;53;20965;-72
2023/01/16 15:06:47;;;;;;;0.80;0.40;;;11.00;65.80;;;;;;2325408;53;20932;-72
2023/01/16 15:09:17;;;;;;;1.05;0.47;;;10.90;65.80;;;;;;2326384;53;20932;-72
2023/01/16 15:12:10;;;;;;;1.95;0.60;;;10.90;65.70;;;;;;2326888;53;20968;-72
2023/01/16 15:14:37;;;;;;;1.08;0.45;;;10.90;65.40;;;;;;2326740;53;21454;-72
2023/01/16 15:22:59;;;;;;;1.00;0.40;;;10.80;66.20;;;;;;2326013;53;21402;-72
2023/01/16 15:25:39;;;;;;;1.52;0.70;;;10.80;66.30;;;;;;2332177;53;20940;-72
2023/01/16 15:31:29;;;;;;;2.80;0.90;;;10.80;66.10;;;;;;2570901;53;20961;-72
2023/01/16 15:34:38;;;;;;;2.22;0.85;;;10.80;65.30;;;;;;2326647;53;21368;-72
2023/01/16 15:37:14;;;;;;;3.62;1.77;;;10.70;65.40;;;;;;2329320;53;21258;-72
2023/01/16 15:39:43;;;;;;;3.33;1.40;;;10.70;66.40;;;;;;2332403;53;22589;-72
2023/01/16 15:48:40;;;;;;;3.47;1.30;;;10.50;66.60;;;;;;2328458;53;20960;-73
2023/01/16 15:51:15;;;;;;;5.28;0.80;;;10.50;66.60;;;;;;2326737;53;22035;-73
2023/01/16 15:53:45;;;;;;;2.05;0.95;;;10.40;66.30;;;;;;2326314;53;20992;-72
2023/01/16 15:56:19;;;;;;;1.98;0.65;;;10.40;66.40;;;;;;2438520;53;21577;-72
2023/01/16 15:58:49;;;;;;;1.85;0.62;;;10.30;66.30;;;;;;2326418;53;21406;-72
2023/01/16 16:01:32;;;;;;;2.75;0.70;;;10.30;66.60;;;;;;2366944;53;22059;-72
2023/01/16 16:04:02;;;;;;;1.35;0.60;;;10.20;66.50;;;;;;2326060;53;21434;-73
2023/01/16 16:06:30;;;;;;;0.93;0.40;;;10.20;66.50;;;;;;2358214;53;21518;-72